Airfield :
LOGIN :

Register | Disclaimer

   EN    FR    IT 

 










Legend :    VFR   Marginal VFR   IFR   Intensive IFR   Very Intensive IFR
Visi :
Ceiling :
>= 8 km
>= 3000ft
5 to 8 km
1000 to 3000 ft
1500m to 5 km
500 to 1000 ft
800 to 1500m
200 to 500 ft
< 800m
< 200 ft
Symbols :   Thunderstorms  Fog  Heavy snow  Heavy precipitations  Wind > 20 kt
SIGMETs :     Misc.  Thunderstorms  Icing  Turbulence  Mountain Waves  Volcanic Ashes







- Airport Elevation : 870 ft
- IATA code : ETZ
- Download approach charts


LFJL - Metz Nancy Lorraine

CURRENT METAR :
  • 191330Z AUTO 04008KT CAVOK 20/10 Q1022 NOSIG

EXPIRED METARs :
  • 191300Z AUTO 05008KT 360V080 CAVOK 20/10 Q1022 NOSIG
  • 191230Z AUTO 04007KT CAVOK 19/10 Q1022 NOSIG
  • 191200Z AUTO 07007KT 030V100 CAVOK 19/10 Q1022 NOSIG
  • 191130Z AUTO 06008KT 030V090 CAVOK 18/10 Q1022 NOSIG
  • 191100Z AUTO 06008KT 9000 NSC 17/10 Q1023 NOSIG

TAF TAF LFJL
Valid from the 19 at 12:00 until the 20 at 12:00 UTC


191100Z 1912/2012 04010KT 8000 NSC
BECMG 1919/1922 4000 BR
PROB40
TEMPO 2003/2007 0800 BCFG BKN002
No reported NOTAMs for that airfield.



MET'MAP, your aeronautical weather chart ! - Copyright ORBIFLY December 2007 - Disclaimer

ORBIFLY MET'MAP TEAM :

Programming & Development : Alexandra Zaïnal
Concept & Development : Baudouin d'Aumeries
Co-Development & Prog : Marc-Olivier Méhu
Technical & hardware support : Manuel Goepfert

Contact : metmap@orbifly.com




SOURCES & CREDITS :

   NOAA